Time;durP1;ratioP1;P1;durP2;ratioP2;P2;SDS_P1;SDS_P2;PMS_P1;PMS_P2;Temp;Humidity;BMP_temperature;BMP_pressure;BME280_temperature;BME280_humidity;BME280_pressure;Samples;Min_cycle;Max_cycle;Signal;HPM_P1;HPM_P2
2022/04/10 00:31:53;;;;;;;6.40;3.47;;;;;;;4.66;68.95;100057.69;1088351;54;20022;-80
2022/04/10 01:01:31;;;;;;;5.50;2.70;;;;;;;4.77;67.58;100064.91;1087218;54;20030;-79
2022/04/10 01:04:19;;;;;;;5.68;2.55;;;;;;;4.81;67.32;100072.53;1086161;54;20018;-80
2022/04/10 01:05:23;;;;;;;5.88;3.00;;;;;;;4.82;67.25;100066.25;1114167;39;20744;-78
2022/04/10 01:31:07;;;;;;;6.13;2.50;;;;;;;5.11;66.29;100073.94;1088723;39;21060;-81
2022/04/10 01:35:06;;;;;;;7.45;2.85;;;;;;;5.00;66.84;100081.84;1088396;54;20014;-78
2022/04/10 01:36:09;;;;;;;8.23;3.38;;;;;;;4.87;67.29;100080.97;1088078;54;20090;-79
2022/04/10 01:37:16;;;;;;;5.50;3.00;;;;;;;4.88;67.08;100080.88;1088734;54;20018;-80
2022/04/10 01:38:20;;;;;;;6.22;3.08;;;;;;;4.88;67.19;100083.50;1088535;54;20015;-81
2022/04/10 01:39:31;;;;;;;5.40;2.60;;;;;;;4.78;67.19;100085.97;1094139;39;20567;-79
2022/04/10 01:40:53;;;;;;;6.60;3.08;;;;;;;4.64;67.49;100086.94;1088646;54;20049;-81
2022/04/10 01:41:55;;;;;;;7.25;2.92;;;;;;;4.63;67.69;100089.69;1088678;54;20587;-79
2022/04/10 01:43:00;;;;;;;5.20;2.72;;;;;;;4.60;67.74;100089.88;1088635;54;20019;-80
2022/04/10 01:55:53;;;;;;;6.57;3.13;;;;;;;4.31;68.93;100088.25;1088327;54;20031;-79
2022/04/10 03:08:45;;;;;;;9.00;3.50;;;;;;;3.77;70.31;100107.72;1080002;54;20042;-79
2022/04/10 03:11:03;;;;;;;7.68;3.65;;;;;;;3.82;70.17;100121.47;1077325;54;20097;-82
2022/04/10 05:26:27;;;;;;;7.38;4.10;;;;;;;3.13;72.15;100264.06;1087274;54;20029;-79
2022/04/10 06:09:53;;;;;;;;;;;;;;;4.52;68.71;100321.63;1087290;54;20042;-79
2022/04/10 06:10:57;;;;;;;5.00;2.72;;;;;;;4.57;68.58;100326.63;1088220;54;19934;-79
2022/04/10 06:13:11;;;;;;;4.60;2.78;;;;;;;4.73;68.27;100326.44;1088033;54;20030;-78
2022/04/10 06:14:15;;;;;;;5.80;3.03;;;;;;;4.80;68.20;100325.13;1087943;54;20044;-78
2022/04/10 06:15:18;;;;;;;5.03;2.85;;;;;;;4.87;68.04;100328.19;1087977;54;20057;-79
2022/04/10 06:16:22;;;;;;;5.68;3.00;;;;;;;4.87;67.77;100330.84;1087876;54;20031;-80
2022/04/10 06:17:24;;;;;;;5.80;2.95;;;;;;;4.89;67.98;100333.41;1087875;54;20034;-79
2022/04/10 06:18:28;;;;;;;5.40;2.80;;;;;;;4.92;67.81;100333.19;1112134;31;20808;-80
2022/04/10 06:19:32;;;;;;;5.43;3.40;;;;;;;4.96;67.57;100340.84;1088629;39;20653;-80
2022/04/10 06:20:49;;;;;;;4.95;2.85;;;;;;;4.96;67.31;100340.84;1088468;54;20015;-81
2022/04/10 06:21:51;;;;;;;5.97;3.20;;;;;;;4.97;67.49;100331.09;1088540;54;20034;-81
2022/04/10 06:22:58;;;;;;;5.43;3.00;;;;;;;5.05;67.47;100338.53;1088462;54;20042;-81
2022/04/10 06:24:02;;;;;;;5.32;2.83;;;;;;;5.07;67.44;100336.63;1088443;54;20034;-81
2022/04/10 06:25:08;;;;;;;6.43;2.97;;;;;;;5.08;67.26;100338.31;1088461;54;20026;-79
2022/04/10 06:26:20;;;;;;;4.20;2.45;;;;;;;5.10;67.06;100344.38;1088537;54;20030;-79
2022/04/10 06:27:22;;;;;;;6.38;3.08;;;;;;;4.95;67.52;100336.50;1088483;54;20034;-81
2022/04/10 06:28:26;;;;;;;5.70;3.03;;;;;;;4.85;67.71;100343.38;1088512;54;20035;-80
2022/04/10 06:29:28;;;;;;;6.88;3.28;;;;;;;4.81;67.88;100348.00;1088495;54;20090;-80
2022/04/10 06:30:32;;;;;;;6.30;2.90;;;;;;;4.91;67.48;100342.13;1091395;46;20041;-80
2022/04/10 06:31:37;;;;;;;6.03;3.10;;;;;;;5.02;67.34;100344.03;1088588;54;20041;-81
2022/04/10 06:32:41;;;;;;;6.82;3.30;;;;;;;5.10;67.14;100339.91;1088382;54;20041;-78
2022/04/10 06:33:43;;;;;;;4.43;2.47;;;;;;;5.19;67.12;100335.81;1088260;54;20027;-77
2022/04/10 06:34:47;;;;;;;7.55;3.33;;;;;;;5.18;67.19;100338.56;1088108;54;20019;-77
2022/04/10 06:35:50;;;;;;;7.60;3.10;;;;;;;5.28;66.83;100334.34;1088771;47;20078;-78
2022/04/10 06:36:54;;;;;;;8.15;3.88;;;;;;;5.12;67.31;100345.97;1088460;54;20030;-78
2022/04/10 06:37:55;;;;;;;6.47;3.00;;;;;;;5.09;67.28;100343.53;1092015;46;20030;-77
2022/04/10 06:39:00;;;;;;;7.35;3.28;;;;;;;5.08;67.33;100349.78;1088427;54;20026;-79
2022/04/10 06:40:09;;;;;;;6.78;3.15;;;;;;;5.05;67.59;100344.69;1088387;54;20045;-78
2022/04/10 06:41:11;;;;;;;8.05;3.00;;;;;;;5.18;67.23;100342.06;1088764;46;20018;-78
2022/04/10 06:42:18;;;;;;;8.35;2.83;;;;;;;5.33;67.00;100342.84;1089576;46;20015;-77
2022/04/10 06:43:22;;;;;;;6.20;3.25;;;;;;;5.44;66.46;100342.97;1088559;54;20041;-77
2022/04/10 06:44:24;;;;;;;5.95;2.63;;;;;;;5.50;66.42;100341.69;1088423;54;20064;-78
2022/04/10 06:45:28;;;;;;;5.53;3.00;;;;;;;5.54;66.40;100342.34;1088107;54;20035;-78
2022/04/10 06:46:30;;;;;;;6.25;3.00;;;;;;;5.57;66.44;100336.81;1087832;54;20038;-78
2022/04/10 06:47:34;;;;;;;4.90;2.45;;;;;;;5.67;66.02;100345.81;1088093;54;20030;-78
2022/04/10 06:48:36;;;;;;;7.38;2.97;;;;;;;5.75;65.95;100340.88;1088208;54;20065;-78
2022/04/10 06:49:41;;;;;;;4.70;2.53;;;;;;;5.83;65.71;100342.13;1088280;54;20057;-78
2022/04/10 06:50:51;;;;;;;6.10;2.33;;;;;;;5.86;65.45;100345.41;1091161;46;20053;-77
2022/04/10 06:51:52;;;;;;;4.63;2.33;;;;;;;5.90;65.64;100341.56;1090213;46;20031;-77
2022/04/10 06:52:57;;;;;;;6.88;2.70;;;;;;;5.92;65.70;100344.13;1088356;54;20029;-78
2022/04/10 06:54:01;;;;;;;5.22;2.67;;;;;;;5.77;65.74;100343.41;1088370;54;20034;-76
2022/04/10 06:55:06;;;;;;;5.15;2.85;;;;;;;5.74;65.70;100348.91;1090569;46;20023;-78
2022/04/10 06:56:10;;;;;;;5.85;2.40;;;;;;;5.83;65.73;100342.97;1088415;54;20031;-78
2022/04/10 06:57:14;;;;;;;6.60;3.25;;;;;;;5.74;65.85;100352.44;1088338;54;20030;-77
2022/04/10 06:58:22;;;;;;;5.45;2.92;;;;;;;5.87;65.75;100346.25;1088501;54;20057;-79
2022/04/10 06:59:32;;;;;;;5.95;2.90;;;;;;;5.67;65.96;100345.81;1101687;46;20118;-78
2022/04/10 07:00:38;;;;;;;8.68;3.30;;;;;;;5.53;66.40;100348.59;1088528;54;20026;-78
2022/04/10 07:01:43;;;;;;;9.52;3.47;;;;;;;5.44;66.35;100332.34;1088341;54;20035;-80
2022/04/10 07:02:44;;;;;;;6.07;3.60;;;;;;;5.43;66.48;100353.69;1088259;54;20078;-78
2022/04/10 07:03:49;;;;;;;6.72;3.40;;;;;;;5.42;66.58;100342.22;1088031;54;20038;-78
2022/04/10 07:04:53;;;;;;;7.03;3.45;;;;;;;5.54;66.45;100344.97;1088280;54;20061;-77
2022/04/10 07:05:58;;;;;;;6.90;3.40;;;;;;;5.73;66.11;100355.16;1088272;54;20031;-78
2022/04/10 07:07:02;;;;;;;5.22;2.80;;;;;;;5.78;65.91;100348.59;1088189;54;20034;-78
2022/04/10 07:08:04;;;;;;;5.95;2.95;;;;;;;5.68;66.04;100352.00;1088114;54;20038;-78
2022/04/10 07:09:08;;;;;;;7.50;3.05;;;;;;;5.60;66.32;100355.16;1088346;54;20014;-78
2022/04/10 07:10:12;;;;;;;7.93;3.42;;;;;;;5.46;66.50;100346.38;1088164;54;20029;-77
2022/04/10 07:11:16;;;;;;;7.00;3.95;;;;;;;5.67;66.55;100351.13;1092772;39;20906;-77
2022/04/10 07:12:18;;;;;;;7.07;3.60;;;;;;;5.81;66.01;100347.50;1087959;54;20034;-78
2022/04/10 07:13:25;;;;;;;7.63;2.92;;;;;;;5.90;65.73;100343.38;1087570;54;20033;-77
2022/04/10 07:14:27;;;;;;;7.35;3.50;;;;;;;5.62;66.26;100351.44;1087760;54;20046;-78
2022/04/10 07:15:31;;;;;;;8.10;3.40;;;;;;;5.68;66.31;100350.19;1090565;39;20614;-78
2022/04/10 07:16:33;;;;;;;8.40;3.22;;;;;;;5.66;66.39;100351.25;1088142;54;20035;-77
2022/04/10 07:17:37;;;;;;;6.53;3.60;;;;;;;5.66;66.16;100346.81;1088192;54;20033;-79
2022/04/10 07:18:42;;;;;;;9.07;3.72;;;;;;;5.63;66.06;100357.63;1088258;54;20038;-80
2022/04/10 07:19:47;;;;;;;5.78;3.15;;;;;;;5.75;65.89;100346.16;1088034;54;20042;-78
2022/04/10 07:20:49;;;;;;;6.05;3.35;;;;;;;5.83;65.83;100350.09;1088094;54;20037;-79
2022/04/10 07:24:26;;;;;;;6.70;3.33;;;;;;;5.77;65.53;100346.88;1088196;54;20027;-79
2022/04/10 07:25:29;;;;;;;6.72;3.13;;;;;;;5.86;65.69;100345.41;1088229;54;20042;-77
2022/04/10 07:26:33;;;;;;;5.72;2.95;;;;;;;6.02;65.11;100350.53;1088284;54;20037;-79
2022/04/10 07:27:35;;;;;;;4.75;2.90;;;;;;;5.97;64.93;100352.59;1088260;54;20029;-80
2022/04/10 07:28:43;;;;;;;7.25;2.90;;;;;;;6.08;64.88;100355.41;1088289;54;20031;-79
2022/04/10 07:29:44;;;;;;;5.93;3.00;;;;;;;6.16;64.78;100348.69;1088309;54;20019;-78
2022/04/10 07:30:48;;;;;;;5.97;2.85;;;;;;;6.20;64.42;100352.84;1088310;54;20026;-77
2022/04/10 07:31:54;;;;;;;6.13;3.13;;;;;;;6.15;64.72;100354.94;1088429;54;20059;-80
2022/04/10 07:32:57;;;;;;;5.35;2.97;;;;;;;6.08;64.85;100358.06;1088292;54;20035;-79
2022/04/10 07:34:03;;;;;;;6.50;3.60;;;;;;;5.98;65.15;100354.31;1088220;54;20058;-78
2022/04/10 07:35:06;;;;;;;6.40;3.63;;;;;;;6.12;64.81;100360.50;1088286;54;20042;-79
2022/04/10 07:36:11;;;;;;;5.85;3.33;;;;;;;6.18;64.62;100360.06;1088254;54;20029;-78
2022/04/10 07:37:13;;;;;;;6.43;3.40;;;;;;;6.11;64.74;100354.31;1087989;54;20030;-78
2022/04/10 07:38:17;;;;;;;5.75;3.30;;;;;;;6.04;64.91;100359.25;1088217;54;20030;-78
2022/04/10 07:39:22;;;;;;;6.07;3.10;;;;;;;6.19;64.40;100353.78;1090628;46;20090;-79
2022/04/10 07:40:23;;;;;;;5.72;3.10;;;;;;;6.09;64.60;100361.56;1088226;54;20030;-80
2022/04/10 07:41:27;;;;;;;7.38;3.40;;;;;;;6.22;64.25;100359.72;1088201;54;20947;-79
2022/04/10 07:59:00;;;;;;;7.28;3.67;;;;;;;6.48;63.75;100372.09;1095069;31;20811;-79
2022/04/10 08:00:04;;;;;;;7.93;3.60;;;;;;;6.44;63.67;100381.22;1088146;54;20065;-79
2022/04/10 08:01:08;;;;;;;6.43;3.20;;;;;;;6.38;63.81;100383.38;1088232;46;20054;-78
2022/04/10 08:02:10;;;;;;;6.93;3.50;;;;;;;6.35;63.93;100385.41;1088189;54;20030;-79
2022/04/10 08:03:15;;;;;;;6.82;3.95;;;;;;;6.33;64.36;100382.00;1088174;54;20033;-78
2022/04/10 08:04:19;;;;;;;7.05;3.60;;;;;;;6.38;64.25;100382.53;1088199;54;20034;-81
2022/04/10 08:05:20;;;;;;;6.78;3.75;;;;;;;6.28;64.42;100384.16;1090863;47;20038;-79
2022/04/10 08:06:24;;;;;;;7.07;4.10;;;;;;;6.23;64.72;100392.44;1088167;54;20706;-80
2022/04/10 08:07:28;;;;;;;6.30;3.47;;;;;;;6.32;64.36;100386.50;1088155;54;20038;-79
2022/04/10 08:08:30;;;;;;;6.78;3.50;;;;;;;6.49;64.20;100395.06;1088254;54;20049;-79
2022/04/10 08:09:35;;;;;;;6.35;3.75;;;;;;;6.55;63.85;100392.81;1087850;54;20742;-80
2022/04/10 08:10:38;;;;;;;7.15;3.92;;;;;;;6.31;64.35;100395.41;1087766;54;21040;-78
2022/04/10 08:11:43;;;;;;;6.13;3.55;;;;;;;6.53;63.90;100399.16;1088104;54;20643;-79
2022/04/10 08:12:44;;;;;;;7.75;4.20;;;;;;;6.65;63.75;100395.63;1088102;54;20034;-79
2022/04/10 08:13:49;;;;;;;8.68;3.88;;;;;;;6.65;63.57;100387.66;1088082;54;20769;-78
2022/04/10 08:14:56;;;;;;;6.88;3.65;;;;;;;6.55;63.45;100389.28;1089533;47;20083;-79
2022/04/10 08:15:58;;;;;;;6.65;3.90;;;;;;;6.61;63.59;100399.50;1088095;54;20046;-78
2022/04/10 08:17:02;;;;;;;8.75;3.95;;;;;;;6.69;63.66;100394.47;1088130;54;20011;-78
2022/04/10 08:18:03;;;;;;;6.88;3.78;;;;;;;6.78;63.25;100390.28;1088066;54;20029;-78
2022/04/10 08:19:11;;;;;;;5.53;3.22;;;;;;;6.87;63.04;100400.22;1089741;47;20042;-77
2022/04/10 08:20:13;;;;;;;6.55;3.03;;;;;;;6.95;62.99;100397.03;1087990;54;20035;-78
2022/04/10 08:21:17;;;;;;;6.38;3.88;;;;;;;6.95;62.89;100402.34;1088154;54;20030;-76
2022/04/10 08:22:23;;;;;;;11.07;4.35;;;;;;;6.82;62.75;100401.53;1088066;54;20061;-77
2022/04/10 08:23:27;;;;;;;8.15;4.10;;;;;;;6.86;62.94;100392.38;1088103;54;20702;-77
2022/04/10 08:24:29;;;;;;;6.50;3.70;;;;;;;6.93;62.82;100409.56;1088081;54;20030;-79
2022/04/10 08:25:33;;;;;;;6.57;3.90;;;;;;;6.93;62.85;100403.44;1088063;54;20030;-77
2022/04/10 08:26:34;;;;;;;6.70;3.72;;;;;;;6.96;62.28;100404.03;1087608;54;20801;-77
2022/04/10 08:27:40;;;;;;;6.40;3.40;;;;;;;7.05;62.26;100406.97;1087824;54;20821;-78
2022/04/10 08:28:41;;;;;;;6.07;3.30;;;;;;;7.08;62.16;100402.28;1089653;47;20718;-78
2022/04/10 08:29:46;;;;;;;6.03;3.42;;;;;;;7.05;61.97;100406.97;1096717;39;20622;-77
2022/04/10 08:30:52;;;;;;;6.88;3.17;;;;;;;7.00;61.45;100410.81;1088057;54;20041;-78
2022/04/10 08:31:56;;;;;;;6.20;3.33;;;;;;;7.13;61.74;100409.91;1088101;54;20015;-78
2022/04/10 08:32:59;;;;;;;6.32;3.28;;;;;;;7.17;61.51;100409.56;1087988;54;20033;-78
2022/04/10 08:34:03;;;;;;;7.82;4.00;;;;;;;7.02;61.61;100400.91;1088038;54;20037;-78
2022/04/10 08:35:06;;;;;;;7.22;4.00;;;;;;;6.80;61.73;100406.97;1089652;31;20718;-78
2022/04/10 08:36:11;;;;;;;9.23;4.60;;;;;;;6.66;61.89;100409.78;1088036;54;20022;-80
2022/04/10 08:37:12;;;;;;;7.80;4.07;;;;;;;6.65;61.88;100410.75;1088038;54;20034;-78
2022/04/10 08:38:17;;;;;;;8.02;4.18;;;;;;;6.69;61.51;100421.03;1087971;54;20014;-79
2022/04/10 08:39:18;;;;;;;7.45;4.15;;;;;;;6.70;61.57;100414.78;1088444;46;20058;-79
2022/04/10 08:40:22;;;;;;;6.45;3.50;;;;;;;6.93;61.13;100414.88;1091022;39;20594;-79
2022/04/10 08:41:31;;;;;;;7.43;4.00;;;;;;;6.72;61.30;100409.34;1088068;54;20049;-79
2022/04/10 08:42:33;;;;;;;7.68;3.70;;;;;;;7.03;60.69;100412.41;1087874;54;20027;-77
2022/04/10 08:43:38;;;;;;;8.80;4.55;;;;;;;7.24;60.02;100412.63;1087627;54;20035;-77
2022/04/10 08:44:39;;;;;;;6.40;3.65;;;;;;;7.35;60.06;100417.13;1087827;54;20145;-78
2022/04/10 08:45:46;;;;;;;5.55;3.15;;;;;;;7.59;59.69;100411.78;1088003;54;20041;-78
2022/04/10 08:46:53;;;;;;;6.70;3.75;;;;;;;7.58;59.38;100404.75;1088047;54;20035;-79
2022/04/10 08:47:55;;;;;;;7.38;3.33;;;;;;;7.79;59.15;100414.75;1087953;54;20030;-79
2022/04/10 08:49:01;;;;;;;5.05;2.97;;;;;;;7.89;58.78;100406.88;1088005;54;20031;-79
2022/04/10 08:50:04;;;;;;;6.40;3.38;;;;;;;7.86;58.40;100407.13;1087972;54;20035;-80
2022/04/10 08:52:17;;;;;;;7.55;3.50;;;;;;;7.67;58.31;100415.66;1088152;54;20035;-78
2022/04/10 08:53:20;;;;;;;5.45;3.30;;;;;;;7.86;57.71;100415.94;1087945;54;20034;-78
2022/04/10 08:54:25;;;;;;;6.80;3.50;;;;;;;7.88;57.70;100407.88;1091032;47;20036;-79
2022/04/10 08:55:26;;;;;;;8.02;3.78;;;;;;;7.78;57.26;100413.03;1089455;39;20629;-79
2022/04/10 08:56:31;;;;;;;6.32;3.65;;;;;;;7.68;56.95;100420.03;1087976;54;20038;-78
2022/04/10 08:57:32;;;;;;;6.65;3.40;;;;;;;7.72;56.79;100416.19;1088012;54;20046;-79
2022/04/10 08:58:36;;;;;;;5.28;2.67;;;;;;;7.76;56.95;100422.94;1088152;54;20034;-78
2022/04/10 08:59:38;;;;;;;6.22;3.10;;;;;;;7.78;56.85;100418.34;1087967;54;20034;-79
2022/04/10 09:00:44;;;;;;;5.93;3.53;;;;;;;7.42;57.21;100420.19;1088041;54;20053;-78
2022/04/10 09:01:46;;;;;;;7.20;3.97;;;;;;;7.31;57.47;100421.84;1088370;54;20039;-78
2022/04/10 09:02:54;;;;;;;6.45;3.80;;;;;;;7.40;57.37;100424.78;1089574;46;20035;-79
2022/04/10 09:03:58;;;;;;;9.25;3.53;;;;;;;7.48;57.64;100419.72;1088898;46;20035;-79
2022/04/10 09:05:00;;;;;;;6.30;3.50;;;;;;;7.52;57.15;100425.66;1088315;54;20015;-78
2022/04/10 09:06:06;;;;;;;5.80;3.20;;;;;;;7.56;57.22;100422.66;1088351;54;20679;-79
2022/04/10 09:07:09;;;;;;;6.80;3.53;;;;;;;7.27;56.87;100424.84;1088288;54;20042;-78
2022/04/10 09:08:14;;;;;;;6.10;3.42;;;;;;;7.39;56.86;100420.41;1087841;54;20034;-77
2022/04/10 09:09:17;;;;;;;6.80;3.28;;;;;;;7.43;56.69;100427.22;1087907;54;20837;-78
2022/04/10 09:10:26;;;;;;;6.95;3.25;;;;;;;7.51;56.13;100419.50;1088066;54;20022;-80
2022/04/10 09:11:32;;;;;;;5.55;3.08;;;;;;;7.42;56.12;100418.38;1087997;54;20042;-79
2022/04/10 09:12:44;;;;;;;7.60;3.28;;;;;;;7.36;55.75;100425.97;1087884;54;20038;-79
2022/04/10 09:13:51;;;;;;;6.47;3.58;;;;;;;7.21;56.25;100426.16;1088064;54;20038;-79
2022/04/10 09:15:02;;;;;;;5.93;3.13;;;;;;;7.42;55.92;100428.19;1087942;54;20042;-78
2022/04/10 09:16:12;;;;;;;6.43;3.45;;;;;;;7.43;55.83;100428.06;1090044;46;20042;-80
2022/04/10 09:17:17;;;;;;;7.25;4.03;;;;;;;7.35;55.68;100425.13;1088118;54;20035;-80
2022/04/10 09:18:22;;;;;;;8.15;4.47;;;;;;;7.24;55.48;100430.38;1088423;54;20033;-78
2022/04/10 09:19:38;;;;;;;8.05;4.30;;;;;;;7.15;55.89;100429.28;1088339;54;20035;-78
2022/04/10 09:20:39;;;;;;;9.60;4.30;;;;;;;7.06;56.55;100432.59;1088552;54;20639;-78
2022/04/10 09:21:46;;;;;;;6.25;3.33;;;;;;;7.10;56.50;100434.06;1088660;54;20019;-79
2022/04/10 09:23:08;;;;;;;7.18;3.78;;;;;;;7.18;55.95;100439.66;1088634;54;20055;-79
2022/04/10 09:24:15;;;;;;;7.72;3.38;;;;;;;7.25;55.92;100438.28;1088548;54;20041;-79
2022/04/10 09:25:19;;;;;;;9.73;4.30;;;;;;;7.11;55.80;100447.25;1088635;54;20020;-79
2022/04/10 09:26:23;;;;;;;8.50;4.43;;;;;;;7.07;56.24;100440.47;1088582;54;20026;-79
2022/04/10 09:27:30;;;;;;;7.20;3.67;;;;;;;7.06;56.14;100440.59;1088518;54;20045;-78
2022/04/10 09:28:45;;;;;;;8.85;4.03;;;;;;;6.96;55.53;100440.38;1088563;54;20034;-80
2022/04/10 09:29:53;;;;;;;7.20;3.60;;;;;;;6.89;55.41;100447.97;1095970;46;20053;-79
2022/04/10 09:30:54;;;;;;;7.20;3.30;;;;;;;6.87;55.96;100452.56;1088464;54;20054;-78
2022/04/10 09:32:03;;;;;;;8.00;4.10;;;;;;;6.85;56.21;100446.50;1088865;46;20019;-79
2022/04/10 09:33:05;;;;;;;8.10;3.60;;;;;;;6.76;56.60;100445.34;1088433;54;20035;-79
2022/04/10 09:34:14;;;;;;;7.50;3.85;;;;;;;6.76;57.17;100444.50;1091162;46;20035;-78
2022/04/10 09:35:21;;;;;;;6.55;3.65;;;;;;;6.85;56.86;100441.19;1088573;54;20026;-78
2022/04/10 09:36:47;;;;;;;8.43;3.85;;;;;;;6.89;57.15;100442.66;1088365;54;20069;-79
2022/04/10 09:37:50;;;;;;;7.15;3.42;;;;;;;6.98;56.85;100444.66;1087999;54;20884;-77
2022/04/10 09:38:55;;;;;;;6.78;3.58;;;;;;;7.07;57.02;100447.59;1097344;39;20602;-80
2022/04/10 09:40:26;;;;;;;6.43;3.58;;;;;;;7.12;57.21;100445.44;1096168;39;20710;-77
2022/04/10 09:41:28;;;;;;;6.65;3.47;;;;;;;7.02;57.23;100451.44;1089252;46;20019;-79
2022/04/10 09:42:34;;;;;;;9.07;3.17;;;;;;;7.06;57.54;100453.88;1088062;54;20046;-79
2022/04/10 09:43:38;;;;;;;6.93;3.28;;;;;;;7.10;57.64;100450.88;1088021;54;20036;-79
2022/04/10 09:44:44;;;;;;;7.80;3.83;;;;;;;7.03;57.26;100445.16;1088181;54;20019;-81
2022/04/10 09:45:49;;;;;;;8.65;3.60;;;;;;;6.92;57.56;100455.72;1088396;54;20019;-80
2022/04/10 09:47:00;;;;;;;6.38;3.47;;;;;;;6.85;57.72;100455.31;1088324;54;20039;-79
2022/04/10 09:48:19;;;;;;;6.63;3.33;;;;;;;6.68;58.69;100453.88;1088078;54;20023;-80
2022/04/10 09:49:26;;;;;;;6.25;3.38;;;;;;;6.78;58.84;100447.91;1087533;54;20831;-79
2022/04/10 09:50:32;;;;;;;8.30;4.05;;;;;;;6.73;58.70;100456.22;1087782;54;20018;-79
2022/04/10 09:52:01;;;;;;;10.43;4.05;;;;;;;6.76;58.73;100450.66;1093848;46;20072;-79
2022/04/10 10:52:31;;;;;;;7.22;3.97;;;;;;;8.62;56.97;100433.22;1088394;54;20095;-81
2022/04/10 10:53:46;;;;;;;6.00;3.80;;;;;;;8.90;56.19;100435.34;1088461;54;20029;-82
2022/04/10 10:54:55;;;;;;;6.95;3.75;;;;;;;8.96;56.08;100430.50;1088633;54;20090;-82
2022/04/10 10:55:59;;;;;;;5.93;3.13;;;;;;;9.08;55.31;100426.81;1088340;54;20031;-78
2022/04/10 10:57:26;;;;;;;9.23;3.58;;;;;;;9.13;55.25;100426.44;1088484;54;20022;-83
2022/04/10 10:58:34;;;;;;;6.18;3.40;;;;;;;9.23;54.83;100421.22;1092569;39;20805;-80
2022/04/10 10:59:39;;;;;;;7.50;3.80;;;;;;;9.23;54.80;100422.03;1088549;54;20025;-80
2022/04/10 11:01:02;;;;;;;6.93;3.70;;;;;;;9.29;54.05;100431.38;1088558;54;20034;-81
2022/04/10 11:02:06;;;;;;;9.48;4.47;;;;;;;9.30;54.18;100428.59;1088471;54;20015;-81
2022/04/10 11:03:12;;;;;;;7.05;4.20;;;;;;;9.04;53.50;100420.88;1088503;54;20023;-82
2022/04/10 11:04:14;;;;;;;8.48;4.50;;;;;;;8.73;54.13;100430.53;1088568;54;20046;-80
2022/04/10 11:05:33;;;;;;;7.35;3.90;;;;;;;8.69;54.19;100426.44;1088533;54;20602;-81
2022/04/10 11:06:45;;;;;;;6.13;3.67;;;;;;;8.78;54.05;100436.38;1088573;54;20032;-82
2022/04/10 11:07:59;;;;;;;6.72;3.33;;;;;;;8.87;53.73;100424.09;1088574;54;20066;-84
2022/04/10 11:21:46;;;;;;;6.78;4.18;;;;;;;8.42;55.19;100414.28;1086675;54;20019;-80
2022/04/10 11:22:52;;;;;;;8.93;4.15;;;;;;;8.48;55.21;100408.53;1088611;54;20034;-82
2022/04/10 11:23:57;;;;;;;9.00;5.20;;;;;;;8.56;55.42;100414.09;1106269;46;20006;-80
2022/04/10 11:25:02;;;;;;;8.98;4.25;;;;;;;8.68;55.41;100416.75;1088871;47;20011;-82
2022/04/10 11:26:11;;;;;;;6.47;4.18;;;;;;;8.56;55.46;100411.44;1092270;46;20017;-83
2022/04/10 11:27:13;;;;;;;8.32;4.65;;;;;;;8.48;55.09;100424.50;1088406;54;20030;-78
2022/04/10 11:28:19;;;;;;;7.65;4.82;;;;;;;8.33;55.08;100415.03;1088343;54;20070;-79
2022/04/10 11:29:20;;;;;;;11.23;5.85;;;;;;;8.25;55.86;100408.50;1088201;54;20038;-79
2022/04/10 11:30:27;;;;;;;7.70;4.50;;;;;;;8.28;55.58;100410.94;1088294;54;20018;-78
2022/04/10 11:31:33;;;;;;;6.20;3.72;;;;;;;8.31;55.45;100411.66;1089473;46;20026;-77
2022/04/10 11:32:48;;;;;;;8.60;4.30;;;;;;;8.38;55.26;100408.38;1088213;54;20019;-80
2022/04/10 11:33:52;;;;;;;8.60;4.32;;;;;;;8.36;55.26;100409.47;1088257;54;20030;-79
2022/04/10 11:35:03;;;;;;;7.43;4.43;;;;;;;8.22;55.96;100403.41;1088192;54;20038;-79
2022/04/10 11:36:19;;;;;;;6.72;4.22;;;;;;;8.11;55.86;100396.25;1088240;54;20099;-80
2022/04/10 11:37:36;;;;;;;7.15;4.68;;;;;;;8.05;56.28;100403.88;1088266;54;20091;-79
2022/04/10 11:38:41;;;;;;;7.95;5.13;;;;;;;8.05;55.94;100398.56;1088189;54;20030;-79
2022/04/10 11:39:43;;;;;;;10.95;5.05;;;;;;;8.06;56.30;100394.94;1092696;39;20598;-79
2022/04/10 11:40:49;;;;;;;7.72;4.25;;;;;;;8.22;56.00;100397.22;1088164;54;20042;-78
2022/04/10 11:41:52;;;;;;;6.28;3.30;;;;;;;8.45;55.45;100394.56;1088208;54;20035;-78
2022/04/10 11:42:57;;;;;;;7.30;4.00;;;;;;;8.57;55.08;100397.13;1088105;54;20030;-77
2022/04/10 11:43:59;;;;;;;8.35;4.00;;;;;;;8.70;54.74;100386.31;1089731;47;20041;-79
2022/04/10 11:45:04;;;;;;;8.55;4.50;;;;;;;8.55;54.54;100398.19;1088981;47;20058;-78
2022/04/10 11:46:11;;;;;;;7.65;4.72;;;;;;;8.66;54.80;100397.34;1087740;54;20821;-81
2022/04/10 11:47:13;;;;;;;6.85;4.07;;;;;;;8.68;54.52;100398.09;1093268;31;20725;-78
2022/04/10 11:48:18;;;;;;;9.88;4.45;;;;;;;8.70;54.55;100401.44;1088087;54;20026;-79
2022/04/10 11:49:20;;;;;;;6.88;3.85;;;;;;;8.77;54.59;100397.34;1088116;54;20038;-78
2022/04/10 11:50:27;;;;;;;8.88;4.22;;;;;;;8.86;54.47;100396.59;1088259;46;20053;-78
2022/04/10 11:51:29;;;;;;;5.97;3.47;;;;;;;8.94;54.30;100393.28;1088109;54;20039;-77
2022/04/10 11:52:37;;;;;;;7.03;3.67;;;;;;;9.04;54.19;100388.06;1088095;54;20130;-78
2022/04/10 11:53:41;;;;;;;6.13;3.42;;;;;;;9.15;53.84;100392.50;1088219;47;20046;-78
2022/04/10 11:54:42;;;;;;;7.47;3.30;;;;;;;9.06;54.18;100391.44;1093198;39;20671;-79
2022/04/10 11:55:52;;;;;;;7.15;4.20;;;;;;;9.03;54.31;100389.03;1088228;54;20034;-82
2022/04/10 11:56:54;;;;;;;7.15;3.65;;;;;;;9.14;54.35;100394.31;1088265;54;20587;-79
2022/04/10 11:57:59;;;;;;;5.68;3.63;;;;;;;9.23;54.27;100391.88;1088348;54;20030;-81
2022/04/10 11:59:03;;;;;;;9.57;4.85;;;;;;;9.10;53.96;100389.38;1088293;54;20030;-80
2022/04/10 12:00:26;;;;;;;8.02;5.13;;;;;;;8.85;54.20;100389.56;1088416;54;20029;-82
2022/04/10 12:01:28;;;;;;;8.30;4.75;;;;;;;8.54;54.89;100396.53;1087930;54;20037;-79
2022/04/10 12:02:33;;;;;;;7.35;4.50;;;;;;;8.43;55.36;100389.34;1087646;54;20031;-80
2022/04/10 12:03:40;;;;;;;7.07;3.95;;;;;;;8.40;55.70;100384.28;1090600;39;20610;-79
2022/04/10 12:04:43;;;;;;;7.93;4.78;;;;;;;8.45;55.67;100387.41;1088129;54;20045;-79
2022/04/10 12:05:47;;;;;;;7.78;4.25;;;;;;;8.54;55.46;100381.38;1091197;39;20749;-81
2022/04/10 12:06:49;;;;;;;7.53;4.65;;;;;;;8.53;55.58;100379.69;1088377;54;20037;-80
2022/04/10 12:08:04;;;;;;;8.07;4.68;;;;;;;8.49;56.12;100385.38;1088378;54;20046;-81
2022/04/10 12:09:06;;;;;;;7.45;3.90;;;;;;;8.62;55.78;100379.91;1090801;39;20685;-81
2022/04/10 12:10:11;;;;;;;7.28;4.45;;;;;;;8.62;55.29;100377.25;1088206;54;20035;-80
2022/04/10 12:11:15;;;;;;;7.88;4.78;;;;;;;8.63;55.38;100377.13;1088296;54;20749;-81
2022/04/10 12:21:51;;;;;;;10.45;4.70;;;;;;;8.69;55.20;100378.47;1088240;54;20023;-81
2022/04/10 12:23:03;;;;;;;5.82;3.67;;;;;;;8.82;54.61;100373.81;1088460;54;20054;-81
2022/04/10 12:24:11;;;;;;;6.25;4.13;;;;;;;8.74;54.83;100376.25;1088502;54;20030;-82
2022/04/10 12:26:07;;;;;;;7.25;4.18;;;;;;;8.73;54.66;100375.44;1088421;54;20070;-82
2022/04/10 12:27:58;;;;;;;8.93;5.07;;;;;;;8.72;54.80;100371.06;1088389;54;20015;-83
2022/04/10 12:29:00;;;;;;;8.02;4.85;;;;;;;8.76;54.75;100377.00;1088132;54;20025;-82
2022/04/10 12:30:13;;;;;;;7.32;4.70;;;;;;;8.87;54.50;100376.97;1091427;39;20668;-83
2022/04/10 12:31:15;;;;;;;7.63;4.43;;;;;;;8.86;54.68;100377.06;1088443;54;20038;-81
2022/04/10 12:32:19;;;;;;;8.35;4.90;;;;;;;8.72;54.83;100375.53;1088275;54;20022;-79
2022/04/10 12:33:24;;;;;;;9.80;4.88;;;;;;;8.55;55.20;100377.75;1088147;54;20034;-79
2022/04/10 12:34:32;;;;;;;8.20;4.47;;;;;;;8.55;55.00;100371.56;1089683;46;20749;-79
2022/04/10 12:35:39;;;;;;;9.02;4.63;;;;;;;8.47;55.59;100373.97;1087983;54;20042;-78
2022/04/10 12:36:46;;;;;;;10.18;4.78;;;;;;;8.48;55.76;100381.88;1088359;54;20061;-77
2022/04/10 12:38:04;;;;;;;8.82;4.18;;;;;;;8.60;55.56;100385.38;1088326;54;21057;-78
2022/04/10 12:39:06;;;;;;;9.30;5.57;;;;;;;8.57;55.48;100380.28;1088401;54;20030;-78
2022/04/10 12:40:11;;;;;;;10.38;4.93;;;;;;;8.60;55.91;100372.03;1090991;46;20042;-81
2022/04/10 12:41:13;;;;;;;7.80;4.40;;;;;;;8.56;56.64;100374.13;1088444;54;20041;-78
2022/04/10 12:42:21;;;;;;;7.40;4.30;;;;;;;8.58;56.48;100379.31;1088434;54;20014;-79
2022/04/10 12:43:29;;;;;;;7.72;4.20;;;;;;;8.55;57.01;100376.88;1090334;39;20540;-79
2022/04/10 12:44:33;;;;;;;9.05;4.25;;;;;;;8.48;57.25;100379.22;1088441;54;20034;-78